Terminal Aerodrome Forecast
Issued by NWS Cleveland, OH

Home | Current Version | Previous Version | Graphics & Text | Print | Product List | Glossary On
Versions: 1 2 3 4 5 6 7 8 9 10 11 12 13 14 15 16 17 18 19 20 21 22 23 24
387
FTUS41 KCLE 152320
TAFCAK
TAF
KCAK 152320Z 1600/1624 23008KT 4SM RA BR VCTS SCT022CB OVC060
      WS020/24045KT
      TEMPO 1600/1604 6SM -RA BR BKN022
     FM160600 33008KT 2SM -RA BR OVC007
     FM161000 33011KT 5SM BR OVC007
     FM161600 32013KT P6SM OVC010
     FM161900 33013KT P6SM BKN025=

USA.gov is the U.S. government's official web portal to all federal, state and local government web resources and services.